Nearby METAR Reports


Data Updates Approximately Every Four (4) Hours

METAR is the international standard code format for hourly surface weather observations which is analogous to the SA coding currently used in the US. The acronym roughly translates from French as Aviation Routine Weather Report. SPECI is merely the code name given to METAR formatted products which are issued on a special non-routine basis as dictated by changing meteorological conditions. The SPECI acronym roughly translates as Aviation Selected Special Weather Report.
Source: NOAA-National Centers For Environmental Information.

KSLH - Cheboygan, Michigan, USA
Distance from Lake Huron Weather: W 9mi
Updated: 09/29/2022 11:35pm
Clear
Clear
 Wind from calm
Wind: Calm
Temperature: 39°F , 4°C
Dew Point: 39°F , 4°C
Humidity: 100%
Barometer: 30.38 inHg , 1028.8 hPa
Clouds: Clear
Visibility: 10 miles , 16 km
2022/09/30 03:35 KSLH 300335Z AUTO 00000KT 10SM CLR 04/04 A3038 RMK AO2
KMCD - Mackinac Island, Michigan, USA
Distance from Lake Huron Weather: NW 19mi
Updated: 09/29/2022 11:35pm
Clear
Clear
 Wind from S
Wind: S 5 mph , 7 km/h
Temperature: 46°F , 8°C
Wind Chill: 44°F , 7°C
Dew Point: 46°F , 8°C
Humidity: 100%
Barometer: 30.38 inHg , 1028.8 hPa
Clouds: Clear
Visibility: 10 miles , 16 km
2022/09/30 03:35 KMCD 300335Z AUTO 18004KT 10SM CLR 08/08 A3038 RMK AO2 T00750075
 
KDRM - Drummond Is, Michigan, USA
Distance from Lake Huron Weather: NE 36mi
Updated: 09/29/2022 11:35pm
Clear
Clear
 Wind from calm
Wind: Calm
Temperature: 39°F , 4°C
Dew Point: 39°F , 4°C
Humidity: 100%
Barometer: 30.38 inHg , 1028.8 hPa
Clouds: Clear
Visibility: 10 miles , 16 km
2022/09/30 03:35 KDRM 300335Z AUTO 00000KT 10SM CLR 04/04 A3038 RMK AO2 T00420042
KPZQ - Rogers City, Michigan, USA
Distance from Lake Huron Weather: SE 31mi
Updated: 09/29/2022 11:35pm
Clear
Clear
 Wind from SSE
Wind: SSE 5 mph , 7 km/h
Temperature: 48°F , 9°C
Wind Chill: 46°F , 8°C
Dew Point: 43°F , 6°C
Humidity: 82%
Barometer: 30.40 inHg , 1029.5 hPa
Clouds: Clear
Visibility: 10 miles , 16 km
2022/09/30 03:35 KPZQ 300335Z AUTO 15004KT 10SM CLR 09/06 A3040 RMK AO2 T00860059
 
CYAM - Sault Ste Marie, Ontario, Canada
Distance from Lake Huron Weather: N 56mi
Updated: 09/29/2022 11:00pm
Few Clouds
Few Clouds
 Wind from SE
Wind: SE 3 mph , 6 km/h
Temperature: 45°F , 7°C
Dew Point: 45°F , 7°C
Humidity: 100%
Barometer: 30.36 inHg , 1028.1 hPa
Clouds: Few Clouds
Visibility: 20 miles , 32 km
Cloud details: Few Clouds 26000 ft
2022/09/30 03:00 CYAM 300300Z 13003KT 20SM FEW260 07/07 A3036 RMK CI2 SLP290
KANJ - Sault Ste Marie, Michigan, USA
Distance from Lake Huron Weather: N 56mi
Updated: 09/29/2022 10:55pm
Clear
Clear
 Wind from S
Wind: S 3 mph , 6 km/h
Temperature: 46°F , 8°C
Dew Point: 43°F , 6°C
Humidity: 87%
Barometer: 30.37 inHg , 1028.4 hPa
Clouds: Clear
Visibility: 10 miles , 16 km
2022/09/30 02:55 KANJ 300255Z AUTO 17003KT 10SM CLR 08/06 A3037 RMK AO2 SLP286 T00780061 56002
 
KGLR - Gaylord, Michigan, USA
Distance from Lake Huron Weather: SSW 48mi
Updated: 09/29/2022 10:53pm
Clear
Clear
 Wind from calm
Wind: Calm
Temperature: 45°F , 7°C
Dew Point: 37°F , 3°C
Humidity: 76%
Barometer: 30.38 inHg , 1028.8 hPa
Clouds: Clear
Visibility: 10 miles , 16 km
2022/09/30 02:53 KGLR 300253Z AUTO 00000KT 10SM CLR 07/03 A3038 RMK AO2 SLP296 T00670033 56002
KPLN - Pellston, Michigan, USA
Distance from Lake Huron Weather: WSW 24mi
Updated: 09/29/2022 10:54pm
Mist, Clear
Mist, Clear
 Wind from calm
Wind: Calm
Temperature: 39°F , 4°C
Dew Point: 37°F , 3°C
Humidity: 93%
Barometer: 30.39 inHg , 1029.1 hPa
Summary: Mist
Clouds: Clear
Visibility: 4 miles , 6 km
2022/09/30 02:54 KPLN 300254Z AUTO 00000KT 4SM BR CLR 04/03 A3039 RMK AO2 SLP297 T00390033 56001